Terminal Aerodrome Forecast
Issued by NWS

Home | Current Version | Previous Version | Text Only | Print | Product List | Glossary On
Versions: 1 2 3 4 5 6 7 8 9 10 11 12 13 14 15 16 17 18
000
FTUS43 KPAH 161700
TAFCGI
TAF
KCGI 161720Z 1618/1718 02008KT P6SM SCT025 BKN070
      TEMPO 1618/1621 BKN025
     FM162300 01004KT P6SM SCT070
     FM170300 00000KT P6SM SKC
      TEMPO 1708/1712 4SM BR
     FM171300 VRB03KT P6SM SCT030 BKN070=

USA.gov is the U.S. government's official web portal to all federal, state and local government web resources and services.